sensor_id;sensor_type;location;lat;lon;timestamp;P1;durP1;ratioP1;P2;durP2;ratioP2
77868;SDS011;67231;59.144;37.934;2023-03-01T00:02:22;11.18;;;2.63;;
77868;SDS011;67231;59.144;37.934;2023-03-01T00:04:49;5.15;;;1.75;;
77868;SDS011;67231;59.144;37.934;2023-03-01T00:07:15;7.63;;;2.80;;
77868;SDS011;67231;59.144;37.934;2023-03-01T00:09:41;6.03;;;2.22;;
77868;SDS011;67231;59.144;37.934;2023-03-01T00:12:07;8.73;;;2.60;;
77868;SDS011;67231;59.144;37.934;2023-03-01T00:14:33;8.27;;;3.15;;
77868;SDS011;67231;59.144;37.934;2023-03-01T00:17:01;9.57;;;3.03;;
77868;SDS011;67231;59.144;37.934;2023-03-01T00:19:27;9.25;;;3.25;;
77868;SDS011;67231;59.144;37.934;2023-03-01T00:21:54;7.70;;;2.78;;
77868;SDS011;67231;59.144;37.934;2023-03-01T00:24:20;9.30;;;2.92;;
77868;SDS011;67231;59.144;37.934;2023-03-01T00:26:46;12.18;;;3.80;;
77868;SDS011;67231;59.144;37.934;2023-03-01T00:29:13;10.65;;;3.08;;
77868;SDS011;67231;59.144;37.934;2023-03-01T00:31:39;9.77;;;3.35;;
77868;SDS011;67231;59.144;37.934;2023-03-01T00:34:05;5.05;;;2.03;;
77868;SDS011;67231;59.144;37.934;2023-03-01T00:36:33;6.18;;;2.15;;
77868;SDS011;67231;59.144;37.934;2023-03-01T00:39:04;6.22;;;1.88;;
77868;SDS011;67231;59.144;37.934;2023-03-01T00:41:31;5.30;;;1.52;;
77868;SDS011;67231;59.144;37.934;2023-03-01T00:43:59;5.57;;;2.15;;
77868;SDS011;67231;59.144;37.934;2023-03-01T00:46:26;2.60;;;1.13;;
77868;SDS011;67231;59.144;37.934;2023-03-01T00:48:53;5.28;;;1.20;;
77868;SDS011;67231;59.144;37.934;2023-03-01T00:51:25;7.78;;;2.10;;
77868;SDS011;67231;59.144;37.934;2023-03-01T00:53:54;4.43;;;1.50;;
77868;SDS011;67231;59.144;37.934;2023-03-01T00:56:22;6.90;;;1.73;;
77868;SDS011;67231;59.144;37.934;2023-03-01T00:58:49;5.03;;;1.85;;
77868;SDS011;67231;59.144;37.934;2023-03-01T01:01:17;6.72;;;2.17;;
77868;SDS011;67231;59.144;37.934;2023-03-01T01:08:57;5.10;;;2.78;;
77868;SDS011;67231;59.144;37.934;2023-03-01T01:11:24;5.72;;;1.55;;
77868;SDS011;67231;59.144;37.934;2023-03-01T01:13:52;8.18;;;1.98;;
77868;SDS011;67231;59.144;37.934;2023-03-01T01:16:20;6.40;;;2.17;;
77868;SDS011;67231;59.144;37.934;2023-03-01T01:18:48;5.43;;;1.30;;
77868;SDS011;67231;59.144;37.934;2023-03-01T01:21:15;2.88;;;1.52;;
77868;SDS011;67231;59.144;37.934;2023-03-01T01:23:44;3.35;;;1.35;;
77868;SDS011;67231;59.144;37.934;2023-03-01T01:26:16;3.45;;;1.30;;
77868;SDS011;67231;59.144;37.934;2023-03-01T01:28:44;3.47;;;1.30;;
77868;SDS011;67231;59.144;37.934;2023-03-01T01:31:11;1.67;;;1.05;;
77868;SDS011;67231;59.144;37.934;2023-03-01T01:33:38;1.90;;;0.98;;
77868;SDS011;67231;59.144;37.934;2023-03-01T01:36:04;2.40;;;1.10;;
77868;SDS011;67231;59.144;37.934;2023-03-01T01:38:32;3.75;;;1.60;;
77868;SDS011;67231;59.144;37.934;2023-03-01T01:40:59;4.95;;;1.58;;
77868;SDS011;67231;59.144;37.934;2023-03-01T01:43:28;4.07;;;1.85;;
77868;SDS011;67231;59.144;37.934;2023-03-01T01:48:27;8.32;;;2.90;;
77868;SDS011;67231;59.144;37.934;2023-03-01T01:51:07;11.23;;;2.58;;
77868;SDS011;67231;59.144;37.934;2023-03-01T01:53:39;7.35;;;2.17;;
77868;SDS011;67231;59.144;37.934;2023-03-01T01:56:07;8.48;;;2.33;;
77868;SDS011;67231;59.144;37.934;2023-03-01T01:58:37;6.68;;;1.85;;
77868;SDS011;67231;59.144;37.934;2023-03-01T02:01:04;5.32;;;1.92;;
77868;SDS011;67231;59.144;37.934;2023-03-01T02:03:32;2.95;;;1.40;;
77868;SDS011;67231;59.144;37.934;2023-03-01T02:06:04;5.85;;;2.00;;
77868;SDS011;67231;59.144;37.934;2023-03-01T02:08:38;3.00;;;1.20;;
77868;SDS011;67231;59.144;37.934;2023-03-01T02:11:07;2.70;;;0.98;;
77868;SDS011;67231;59.144;37.934;2023-03-01T02:13:36;6.60;;;2.03;;
77868;SDS011;67231;59.144;37.934;2023-03-01T02:16:03;3.70;;;1.85;;
77868;SDS011;67231;59.144;37.934;2023-03-01T02:18:40;8.18;;;2.92;;
77868;SDS011;67231;59.144;37.934;2023-03-01T02:21:17;7.45;;;3.13;;
77868;SDS011;67231;59.144;37.934;2023-03-01T02:23:45;13.13;;;3.67;;
77868;SDS011;67231;59.144;37.934;2023-03-01T02:28:44;19.63;;;5.13;;
77868;SDS011;67231;59.144;37.934;2023-03-01T02:31:13;18.83;;;5.45;;
77868;SDS011;67231;59.144;37.934;2023-03-01T02:34:00;21.58;;;6.38;;
77868;SDS011;67231;59.144;37.934;2023-03-01T02:38:59;5.53;;;2.08;;
77868;SDS011;67231;59.144;37.934;2023-03-01T02:41:28;7.18;;;2.88;;
77868;SDS011;67231;59.144;37.934;2023-03-01T02:44:01;6.78;;;2.47;;
77868;SDS011;67231;59.144;37.934;2023-03-01T02:46:28;8.73;;;2.50;;
77868;SDS011;67231;59.144;37.934;2023-03-01T02:48:56;4.70;;;2.00;;
77868;SDS011;67231;59.144;37.934;2023-03-01T02:54:12;7.38;;;2.72;;
77868;SDS011;67231;59.144;37.934;2023-03-01T02:56:48;10.80;;;2.40;;
77868;SDS011;67231;59.144;37.934;2023-03-01T02:59:18;11.07;;;3.38;;
77868;SDS011;67231;59.144;37.934;2023-03-01T03:01:47;7.60;;;2.30;;
77868;SDS011;67231;59.144;37.934;2023-03-01T03:04:14;3.85;;;1.85;;
77868;SDS011;67231;59.144;37.934;2023-03-01T03:06:48;5.53;;;1.60;;
77868;SDS011;67231;59.144;37.934;2023-03-01T03:09:16;7.47;;;2.05;;
77868;SDS011;67231;59.144;37.934;2023-03-01T03:11:44;6.80;;;1.80;;
77868;SDS011;67231;59.144;37.934;2023-03-01T03:14:12;8.32;;;2.85;;
77868;SDS011;67231;59.144;37.934;2023-03-01T03:16:46;3.80;;;1.65;;
77868;SDS011;67231;59.144;37.934;2023-03-01T03:19:14;7.53;;;2.45;;
77868;SDS011;67231;59.144;37.934;2023-03-01T03:21:42;4.40;;;1.33;;
77868;SDS011;67231;59.144;37.934;2023-03-01T03:24:08;10.23;;;2.40;;
77868;SDS011;67231;59.144;37.934;2023-03-01T03:26:35;3.95;;;1.40;;
77868;SDS011;67231;59.144;37.934;2023-03-01T03:29:02;6.40;;;1.58;;
77868;SDS011;67231;59.144;37.934;2023-03-01T03:31:28;5.38;;;1.55;;
77868;SDS011;67231;59.144;37.934;2023-03-01T03:33:54;3.95;;;1.63;;
77868;SDS011;67231;59.144;37.934;2023-03-01T03:36:23;3.22;;;1.63;;
77868;SDS011;67231;59.144;37.934;2023-03-01T03:38:49;5.38;;;1.67;;
77868;SDS011;67231;59.144;37.934;2023-03-01T03:41:16;7.68;;;2.15;;
77868;SDS011;67231;59.144;37.934;2023-03-01T03:43:43;8.70;;;2.28;;
77868;SDS011;67231;59.144;37.934;2023-03-01T03:46:10;10.73;;;2.92;;
77868;SDS011;67231;59.144;37.934;2023-03-01T03:48:41;8.93;;;3.22;;
77868;SDS011;67231;59.144;37.934;2023-03-01T03:51:10;9.32;;;2.85;;
77868;SDS011;67231;59.144;37.934;2023-03-01T03:53:38;8.63;;;2.63;;
77868;SDS011;67231;59.144;37.934;2023-03-01T03:56:04;7.20;;;2.67;;
77868;SDS011;67231;59.144;37.934;2023-03-01T03:58:31;7.63;;;2.75;;
77868;SDS011;67231;59.144;37.934;2023-03-01T04:00:57;8.57;;;2.85;;
77868;SDS011;67231;59.144;37.934;2023-03-01T04:03:24;8.13;;;2.55;;
77868;SDS011;67231;59.144;37.934;2023-03-01T04:05:52;8.60;;;2.75;;
77868;SDS011;67231;59.144;37.934;2023-03-01T04:08:18;6.05;;;2.25;;
77868;SDS011;67231;59.144;37.934;2023-03-01T04:10:48;7.45;;;2.25;;
77868;SDS011;67231;59.144;37.934;2023-03-01T04:13:19;6.47;;;2.45;;
77868;SDS011;67231;59.144;37.934;2023-03-01T04:15:51;8.38;;;3.00;;
77868;SDS011;67231;59.144;37.934;2023-03-01T04:18:21;7.03;;;2.88;;
77868;SDS011;67231;59.144;37.934;2023-03-01T04:20:50;8.43;;;3.13;;
77868;SDS011;67231;59.144;37.934;2023-03-01T04:23:18;12.18;;;4.60;;
77868;SDS011;67231;59.144;37.934;2023-03-01T04:25:47;12.15;;;5.32;;
77868;SDS011;67231;59.144;37.934;2023-03-01T04:28:52;20.27;;;6.93;;
77868;SDS011;67231;59.144;37.934;2023-03-01T04:31:14;23.23;;;7.00;;
77868;SDS011;67231;59.144;37.934;2023-03-01T04:33:44;32.45;;;10.25;;
77868;SDS011;67231;59.144;37.934;2023-03-01T04:36:17;31.10;;;8.90;;
77868;SDS011;67231;59.144;37.934;2023-03-01T04:38:44;31.83;;;10.18;;
77868;SDS011;67231;59.144;37.934;2023-03-01T04:41:15;18.20;;;6.90;;
77868;SDS011;67231;59.144;37.934;2023-03-01T04:43:43;15.25;;;5.90;;
77868;SDS011;67231;59.144;37.934;2023-03-01T04:46:14;14.57;;;5.70;;
77868;SDS011;67231;59.144;37.934;2023-03-01T04:48:43;8.70;;;3.58;;
77868;SDS011;67231;59.144;37.934;2023-03-01T04:51:10;13.23;;;3.55;;
77868;SDS011;67231;59.144;37.934;2023-03-01T04:53:39;12.02;;;3.80;;
77868;SDS011;67231;59.144;37.934;2023-03-01T04:56:06;13.63;;;4.03;;
77868;SDS011;67231;59.144;37.934;2023-03-01T04:58:32;7.55;;;3.45;;
77868;SDS011;67231;59.144;37.934;2023-03-01T05:00:58;10.73;;;3.00;;
77868;SDS011;67231;59.144;37.934;2023-03-01T05:03:25;7.47;;;2.60;;
77868;SDS011;67231;59.144;37.934;2023-03-01T05:05:51;13.75;;;3.95;;
77868;SDS011;67231;59.144;37.934;2023-03-01T05:08:18;21.17;;;5.78;;
77868;SDS011;67231;59.144;37.934;2023-03-01T05:10:48;6.18;;;3.25;;
77868;SDS011;67231;59.144;37.934;2023-03-01T05:13:18;13.57;;;4.85;;
77868;SDS011;67231;59.144;37.934;2023-03-01T05:15:53;17.17;;;5.93;;
77868;SDS011;67231;59.144;37.934;2023-03-01T05:18:21;15.23;;;4.70;;
77868;SDS011;67231;59.144;37.934;2023-03-01T05:20:52;6.82;;;3.13;;
77868;SDS011;67231;59.144;37.934;2023-03-01T05:23:22;14.15;;;4.95;;
77868;SDS011;67231;59.144;37.934;2023-03-01T05:25:48;11.10;;;4.03;;
77868;SDS011;67231;59.144;37.934;2023-03-01T05:28:18;12.40;;;3.53;;
77868;SDS011;67231;59.144;37.934;2023-03-01T05:30:45;7.18;;;2.78;;
77868;SDS011;67231;59.144;37.934;2023-03-01T05:33:12;4.78;;;1.80;;
77868;SDS011;67231;59.144;37.934;2023-03-01T05:35:41;5.72;;;1.90;;
77868;SDS011;67231;59.144;37.934;2023-03-01T05:38:09;5.95;;;1.95;;
77868;SDS011;67231;59.144;37.934;2023-03-01T05:40:39;4.57;;;1.90;;
77868;SDS011;67231;59.144;37.934;2023-03-01T05:43:07;5.38;;;2.13;;
77868;SDS011;67231;59.144;37.934;2023-03-01T05:45:35;3.40;;;1.83;;
77868;SDS011;67231;59.144;37.934;2023-03-01T05:48:02;5.43;;;2.13;;
77868;SDS011;67231;59.144;37.934;2023-03-01T05:50:35;2.70;;;1.38;;
77868;SDS011;67231;59.144;37.934;2023-03-01T05:53:04;3.35;;;1.38;;
77868;SDS011;67231;59.144;37.934;2023-03-01T05:55:33;2.78;;;1.30;;
77868;SDS011;67231;59.144;37.934;2023-03-01T05:58:01;4.28;;;1.27;;
77868;SDS011;67231;59.144;37.934;2023-03-01T06:00:29;5.90;;;2.22;;
77868;SDS011;67231;59.144;37.934;2023-03-01T06:02:56;6.85;;;2.35;;
77868;SDS011;67231;59.144;37.934;2023-03-01T06:05:23;10.20;;;2.65;;
77868;SDS011;67231;59.144;37.934;2023-03-01T06:07:51;10.55;;;3.50;;
77868;SDS011;67231;59.144;37.934;2023-03-01T06:10:19;10.50;;;3.70;;
77868;SDS011;67231;59.144;37.934;2023-03-01T06:12:47;7.85;;;2.97;;
77868;SDS011;67231;59.144;37.934;2023-03-01T06:15:14;9.45;;;3.40;;
77868;SDS011;67231;59.144;37.934;2023-03-01T06:17:42;9.65;;;3.38;;
77868;SDS011;67231;59.144;37.934;2023-03-01T06:20:11;14.70;;;4.88;;
77868;SDS011;67231;59.144;37.934;2023-03-01T06:22:38;13.80;;;4.93;;
77868;SDS011;67231;59.144;37.934;2023-03-01T06:25:05;15.48;;;4.55;;
77868;SDS011;67231;59.144;37.934;2023-03-01T06:27:32;8.95;;;2.60;;
77868;SDS011;67231;59.144;37.934;2023-03-01T06:29:58;11.35;;;3.75;;
77868;SDS011;67231;59.144;37.934;2023-03-01T06:32:24;11.48;;;4.00;;
77868;SDS011;67231;59.144;37.934;2023-03-01T06:34:51;8.95;;;3.65;;
77868;SDS011;67231;59.144;37.934;2023-03-01T06:37:17;10.80;;;3.80;;
77868;SDS011;67231;59.144;37.934;2023-03-01T06:39:43;16.00;;;3.97;;
77868;SDS011;67231;59.144;37.934;2023-03-01T06:42:10;12.45;;;4.30;;
77868;SDS011;67231;59.144;37.934;2023-03-01T06:44:36;16.40;;;5.35;;
77868;SDS011;67231;59.144;37.934;2023-03-01T06:47:03;12.48;;;4.68;;
77868;SDS011;67231;59.144;37.934;2023-03-01T06:49:30;13.90;;;4.72;;
77868;SDS011;67231;59.144;37.934;2023-03-01T06:51:56;11.27;;;3.47;;
77868;SDS011;67231;59.144;37.934;2023-03-01T06:54:23;8.20;;;3.38;;
77868;SDS011;67231;59.144;37.934;2023-03-01T06:56:49;8.48;;;4.10;;
77868;SDS011;67231;59.144;37.934;2023-03-01T06:59:16;6.78;;;3.03;;
77868;SDS011;67231;59.144;37.934;2023-03-01T07:01:43;5.97;;;2.30;;
77868;SDS011;67231;59.144;37.934;2023-03-01T07:04:10;4.45;;;1.70;;
77868;SDS011;67231;59.144;37.934;2023-03-01T07:06:37;5.35;;;2.20;;
77868;SDS011;67231;59.144;37.934;2023-03-01T07:09:05;12.13;;;3.95;;
77868;SDS011;67231;59.144;37.934;2023-03-01T07:11:32;6.35;;;2.88;;
77868;SDS011;67231;59.144;37.934;2023-03-01T07:13:58;9.02;;;2.78;;
77868;SDS011;67231;59.144;37.934;2023-03-01T07:16:25;4.28;;;1.90;;
77868;SDS011;67231;59.144;37.934;2023-03-01T07:18:51;8.63;;;2.60;;
77868;SDS011;67231;59.144;37.934;2023-03-01T07:21:17;11.82;;;2.75;;
77868;SDS011;67231;59.144;37.934;2023-03-01T07:23:44;8.00;;;2.50;;
77868;SDS011;67231;59.144;37.934;2023-03-01T07:26:13;9.32;;;2.80;;
77868;SDS011;67231;59.144;37.934;2023-03-01T07:28:39;9.10;;;4.07;;
77868;SDS011;67231;59.144;37.934;2023-03-01T07:31:06;8.85;;;3.22;;
77868;SDS011;67231;59.144;37.934;2023-03-01T07:33:32;12.05;;;3.97;;
77868;SDS011;67231;59.144;37.934;2023-03-01T07:35:59;8.13;;;3.45;;
77868;SDS011;67231;59.144;37.934;2023-03-01T07:38:27;14.25;;;4.18;;
77868;SDS011;67231;59.144;37.934;2023-03-01T07:40:57;11.73;;;4.05;;
77868;SDS011;67231;59.144;37.934;2023-03-01T07:43:24;15.13;;;3.95;;
77868;SDS011;67231;59.144;37.934;2023-03-01T07:45:51;15.05;;;3.90;;
77868;SDS011;67231;59.144;37.934;2023-03-01T07:48:17;10.30;;;3.08;;
77868;SDS011;67231;59.144;37.934;2023-03-01T07:50:43;8.90;;;2.45;;
77868;SDS011;67231;59.144;37.934;2023-03-01T07:53:09;6.78;;;2.80;;
77868;SDS011;67231;59.144;37.934;2023-03-01T07:55:36;6.78;;;3.28;;
77868;SDS011;67231;59.144;37.934;2023-03-01T07:58:02;14.38;;;3.60;;
77868;SDS011;67231;59.144;37.934;2023-03-01T08:00:29;8.57;;;2.65;;
77868;SDS011;67231;59.144;37.934;2023-03-01T08:02:58;12.77;;;3.78;;
77868;SDS011;67231;59.144;37.934;2023-03-01T08:05:24;13.00;;;3.38;;
77868;SDS011;67231;59.144;37.934;2023-03-01T08:07:51;9.52;;;3.17;;
77868;SDS011;67231;59.144;37.934;2023-03-01T08:10:17;10.13;;;3.20;;
77868;SDS011;67231;59.144;37.934;2023-03-01T08:12:43;10.80;;;3.15;;
77868;SDS011;67231;59.144;37.934;2023-03-01T08:15:10;5.28;;;2.22;;
77868;SDS011;67231;59.144;37.934;2023-03-01T08:17:36;7.72;;;2.83;;
77868;SDS011;67231;59.144;37.934;2023-03-01T08:20:03;4.35;;;1.67;;
77868;SDS011;67231;59.144;37.934;2023-03-01T08:22:32;7.72;;;2.45;;
77868;SDS011;67231;59.144;37.934;2023-03-01T08:24:59;8.25;;;2.90;;
77868;SDS011;67231;59.144;37.934;2023-03-01T08:27:25;10.20;;;3.13;;
77868;SDS011;67231;59.144;37.934;2023-03-01T08:29:51;5.60;;;2.58;;
77868;SDS011;67231;59.144;37.934;2023-03-01T08:32:18;4.85;;;2.08;;
77868;SDS011;67231;59.144;37.934;2023-03-01T08:34:46;7.40;;;3.22;;
77868;SDS011;67231;59.144;37.934;2023-03-01T08:37:13;8.27;;;3.03;;
77868;SDS011;67231;59.144;37.934;2023-03-01T08:39:39;9.05;;;3.35;;
77868;SDS011;67231;59.144;37.934;2023-03-01T08:42:05;8.50;;;3.00;;
77868;SDS011;67231;59.144;37.934;2023-03-01T08:44:31;9.52;;;3.10;;
77868;SDS011;67231;59.144;37.934;2023-03-01T08:46:58;7.75;;;3.42;;
77868;SDS011;67231;59.144;37.934;2023-03-01T08:49:25;8.02;;;2.75;;
77868;SDS011;67231;59.144;37.934;2023-03-01T08:51:52;9.98;;;3.20;;
77868;SDS011;67231;59.144;37.934;2023-03-01T08:54:19;9.20;;;3.13;;
77868;SDS011;67231;59.144;37.934;2023-03-01T08:56:47;4.97;;;2.08;;
77868;SDS011;67231;59.144;37.934;2023-03-01T08:59:14;7.80;;;2.20;;
77868;SDS011;67231;59.144;37.934;2023-03-01T09:01:42;5.53;;;2.08;;
77868;SDS011;67231;59.144;37.934;2023-03-01T09:04:10;5.60;;;1.92;;
77868;SDS011;67231;59.144;37.934;2023-03-01T09:06:37;6.10;;;2.00;;
77868;SDS011;67231;59.144;37.934;2023-03-01T09:09:04;6.78;;;2.38;;
77868;SDS011;67231;59.144;37.934;2023-03-01T09:11:31;3.17;;;1.33;;
77868;SDS011;67231;59.144;37.934;2023-03-01T09:13:57;7.63;;;3.67;;
77868;SDS011;67231;59.144;37.934;2023-03-01T09:16:23;3.42;;;1.45;;
77868;SDS011;67231;59.144;37.934;2023-03-01T09:18:50;12.23;;;3.58;;
77868;SDS011;67231;59.144;37.934;2023-03-01T09:21:19;3.97;;;1.58;;
77868;SDS011;67231;59.144;37.934;2023-03-01T09:23:47;3.35;;;1.58;;
77868;SDS011;67231;59.144;37.934;2023-03-01T09:26:20;11.82;;;3.33;;
77868;SDS011;67231;59.144;37.934;2023-03-01T09:28:48;7.93;;;2.67;;
77868;SDS011;67231;59.144;37.934;2023-03-01T09:31:17;5.90;;;1.98;;
77868;SDS011;67231;59.144;37.934;2023-03-01T09:33:48;6.55;;;1.45;;
77868;SDS011;67231;59.144;37.934;2023-03-01T09:36:17;3.75;;;1.27;;
77868;SDS011;67231;59.144;37.934;2023-03-01T09:38:46;6.10;;;2.40;;
77868;SDS011;67231;59.144;37.934;2023-03-01T09:41:26;4.50;;;1.60;;
77868;SDS011;67231;59.144;37.934;2023-03-01T09:44:01;4.43;;;1.80;;
77868;SDS011;67231;59.144;37.934;2023-03-01T09:46:37;5.68;;;2.13;;
77868;SDS011;67231;59.144;37.934;2023-03-01T09:49:15;6.20;;;1.90;;
77868;SDS011;67231;59.144;37.934;2023-03-01T09:51:53;3.95;;;1.70;;
77868;SDS011;67231;59.144;37.934;2023-03-01T09:54:22;5.90;;;2.17;;
77868;SDS011;67231;59.144;37.934;2023-03-01T09:56:56;3.70;;;1.30;;
77868;SDS011;67231;59.144;37.934;2023-03-01T10:02:26;7.18;;;2.45;;
77868;SDS011;67231;59.144;37.934;2023-03-01T10:05:12;12.45;;;3.92;;
77868;SDS011;67231;59.144;37.934;2023-03-01T10:10:37;8.48;;;2.75;;
77868;SDS011;67231;59.144;37.934;2023-03-01T10:13:26;5.82;;;2.50;;
77868;SDS011;67231;59.144;37.934;2023-03-01T10:16:10;5.90;;;2.35;;
77868;SDS011;67231;59.144;37.934;2023-03-01T10:18:40;9.65;;;3.35;;
77868;SDS011;67231;59.144;37.934;2023-03-01T10:21:15;8.05;;;2.90;;
77868;SDS011;67231;59.144;37.934;2023-03-01T10:26:29;10.40;;;3.00;;
77868;SDS011;67231;59.144;37.934;2023-03-01T10:31:25;6.47;;;2.85;;
77868;SDS011;67231;59.144;37.934;2023-03-01T10:34:08;4.45;;;1.77;;
77868;SDS011;67231;59.144;37.934;2023-03-01T10:36:37;3.97;;;1.60;;
77868;SDS011;67231;59.144;37.934;2023-03-01T10:39:11;8.48;;;2.30;;
77868;SDS011;67231;59.144;37.934;2023-03-01T10:41:44;6.70;;;2.60;;
77868;SDS011;67231;59.144;37.934;2023-03-01T10:47:18;7.32;;;2.35;;
77868;SDS011;67231;59.144;37.934;2023-03-01T10:49:55;5.43;;;2.13;;
77868;SDS011;67231;59.144;37.934;2023-03-01T10:52:29;4.80;;;2.22;;
77868;SDS011;67231;59.144;37.934;2023-03-01T10:55:04;8.90;;;2.40;;
77868;SDS011;67231;59.144;37.934;2023-03-01T10:57:47;5.10;;;1.90;;
77868;SDS011;67231;59.144;37.934;2023-03-01T11:00:21;13.48;;;3.40;;
77868;SDS011;67231;59.144;37.934;2023-03-01T11:05:19;4.00;;;1.25;;
77868;SDS011;67231;59.144;37.934;2023-03-01T11:12:52;15.00;;;4.22;;
77868;SDS011;67231;59.144;37.934;2023-03-01T11:15:31;10.30;;;3.25;;
77868;SDS011;67231;59.144;37.934;2023-03-01T11:17:57;15.20;;;4.95;;
77868;SDS011;67231;59.144;37.934;2023-03-01T11:20:25;16.35;;;4.85;;
77868;SDS011;67231;59.144;37.934;2023-03-01T11:22:56;15.13;;;5.45;;
77868;SDS011;67231;59.144;37.934;2023-03-01T11:26:11;8.80;;;3.03;;
77868;SDS011;67231;59.144;37.934;2023-03-01T11:28:33;15.70;;;4.25;;
77868;SDS011;67231;59.144;37.934;2023-03-01T11:39:03;10.90;;;2.72;;
77868;SDS011;67231;59.144;37.934;2023-03-01T11:42:00;6.47;;;2.55;;
77868;SDS011;67231;59.144;37.934;2023-03-01T11:44:33;7.72;;;2.60;;
77868;SDS011;67231;59.144;37.934;2023-03-01T12:06:59;8.63;;;2.80;;
77868;SDS011;67231;59.144;37.934;2023-03-01T12:09:38;12.80;;;3.70;;
77868;SDS011;67231;59.144;37.934;2023-03-01T12:20:29;7.95;;;2.78;;
77868;SDS011;67231;59.144;37.934;2023-03-01T12:23:52;6.18;;;2.97;;
77868;SDS011;67231;59.144;37.934;2023-03-01T12:26:24;9.68;;;2.15;;
77868;SDS011;67231;59.144;37.934;2023-03-01T12:28:55;10.52;;;3.13;;
77868;SDS011;67231;59.144;37.934;2023-03-01T12:43:06;11.02;;;3.67;;
77868;SDS011;67231;59.144;37.934;2023-03-01T12:53:32;11.60;;;4.07;;
77868;SDS011;67231;59.144;37.934;2023-03-01T12:56:04;22.98;;;6.22;;
77868;SDS011;67231;59.144;37.934;2023-03-01T12:58:35;22.83;;;6.82;;
77868;SDS011;67231;59.144;37.934;2023-03-01T13:01:22;15.20;;;6.07;;
77868;SDS011;67231;59.144;37.934;2023-03-01T13:04:19;40.38;;;11.18;;
77868;SDS011;67231;59.144;37.934;2023-03-01T13:09:57;44.47;;;12.00;;
77868;SDS011;67231;59.144;37.934;2023-03-01T13:12:42;27.15;;;7.22;;
77868;SDS011;67231;59.144;37.934;2023-03-01T13:15:24;47.55;;;14.30;;
77868;SDS011;67231;59.144;37.934;2023-03-01T13:18:31;34.38;;;10.55;;
77868;SDS011;67231;59.144;37.934;2023-03-01T13:20:53;26.60;;;9.32;;
77868;SDS011;67231;59.144;37.934;2023-03-01T13:23:33;28.65;;;8.70;;
77868;SDS011;67231;59.144;37.934;2023-03-01T13:36:10;22.88;;;6.85;;
77868;SDS011;67231;59.144;37.934;2023-03-01T13:38:59;18.73;;;6.95;;
77868;SDS011;67231;59.144;37.934;2023-03-01T13:44:26;16.48;;;5.10;;
77868;SDS011;67231;59.144;37.934;2023-03-01T13:46:59;19.33;;;6.22;;
77868;SDS011;67231;59.144;37.934;2023-03-01T13:49:35;17.70;;;4.53;;
77868;SDS011;67231;59.144;37.934;2023-03-01T13:52:20;12.88;;;4.40;;
77868;SDS011;67231;59.144;37.934;2023-03-01T13:54:56;13.82;;;4.38;;
77868;SDS011;67231;59.144;37.934;2023-03-01T13:57:25;9.38;;;3.20;;
77868;SDS011;67231;59.144;37.934;2023-03-01T13:59:57;14.55;;;3.95;;
77868;SDS011;67231;59.144;37.934;2023-03-01T14:02:23;13.52;;;4.22;;
77868;SDS011;67231;59.144;37.934;2023-03-01T14:04:56;15.20;;;4.45;;
77868;SDS011;67231;59.144;37.934;2023-03-01T14:07:26;12.55;;;4.40;;
77868;SDS011;67231;59.144;37.934;2023-03-01T14:10:02;11.50;;;3.63;;
77868;SDS011;67231;59.144;37.934;2023-03-01T14:15:31;20.60;;;7.38;;
77868;SDS011;67231;59.144;37.934;2023-03-01T14:20:48;17.80;;;4.82;;
77868;SDS011;67231;59.144;37.934;2023-03-01T14:23:19;18.48;;;5.22;;
77868;SDS011;67231;59.144;37.934;2023-03-01T14:25:51;18.38;;;5.40;;
77868;SDS011;67231;59.144;37.934;2023-03-01T14:31:03;11.02;;;3.28;;
77868;SDS011;67231;59.144;37.934;2023-03-01T14:33:56;5.90;;;2.63;;
77868;SDS011;67231;59.144;37.934;2023-03-01T14:36:26;4.88;;;2.05;;
77868;SDS011;67231;59.144;37.934;2023-03-01T14:38:54;7.03;;;2.03;;
77868;SDS011;67231;59.144;37.934;2023-03-01T14:41:21;10.80;;;3.33;;
77868;SDS011;67231;59.144;37.934;2023-03-01T14:49:03;10.50;;;2.85;;
77868;SDS011;67231;59.144;37.934;2023-03-01T14:51:39;9.30;;;3.22;;
77868;SDS011;67231;59.144;37.934;2023-03-01T14:54:18;7.28;;;2.83;;
77868;SDS011;67231;59.144;37.934;2023-03-01T14:56:50;4.82;;;1.80;;
77868;SDS011;67231;59.144;37.934;2023-03-01T14:59:19;6.47;;;2.65;;
77868;SDS011;67231;59.144;37.934;2023-03-01T15:01:48;4.22;;;1.85;;
77868;SDS011;67231;59.144;37.934;2023-03-01T15:04:16;4.85;;;1.80;;
77868;SDS011;67231;59.144;37.934;2023-03-01T15:06:44;5.88;;;2.22;;
77868;SDS011;67231;59.144;37.934;2023-03-01T15:09:12;5.80;;;1.92;;
77868;SDS011;67231;59.144;37.934;2023-03-01T15:11:42;2.75;;;1.40;;
77868;SDS011;67231;59.144;37.934;2023-03-01T15:20:00;7.90;;;1.95;;
77868;SDS011;67231;59.144;37.934;2023-03-01T15:22:30;4.88;;;1.55;;
77868;SDS011;67231;59.144;37.934;2023-03-01T15:24:56;3.85;;;1.25;;
77868;SDS011;67231;59.144;37.934;2023-03-01T15:27:23;4.75;;;1.88;;
77868;SDS011;67231;59.144;37.934;2023-03-01T15:29:55;2.17;;;1.38;;
77868;SDS011;67231;59.144;37.934;2023-03-01T15:32:26;5.15;;;2.60;;
77868;SDS011;67231;59.144;37.934;2023-03-01T15:34:57;4.45;;;1.40;;
77868;SDS011;67231;59.144;37.934;2023-03-01T15:40:22;3.08;;;1.30;;
77868;SDS011;67231;59.144;37.934;2023-03-01T15:42:57;4.80;;;1.67;;
77868;SDS011;67231;59.144;37.934;2023-03-01T15:45:28;8.25;;;1.65;;
77868;SDS011;67231;59.144;37.934;2023-03-01T15:47:56;2.10;;;1.17;;
77868;SDS011;67231;59.144;37.934;2023-03-01T15:50:29;4.45;;;1.17;;
77868;SDS011;67231;59.144;37.934;2023-03-01T15:52:58;4.82;;;1.30;;
77868;SDS011;67231;59.144;37.934;2023-03-01T15:55:30;2.85;;;1.20;;
77868;SDS011;67231;59.144;37.934;2023-03-01T15:57:59;4.65;;;1.45;;
77868;SDS011;67231;59.144;37.934;2023-03-01T16:00:29;5.25;;;1.80;;
77868;SDS011;67231;59.144;37.934;2023-03-01T16:02:55;5.28;;;2.10;;
77868;SDS011;67231;59.144;37.934;2023-03-01T16:05:25;1.50;;;0.98;;
77868;SDS011;67231;59.144;37.934;2023-03-01T16:07:53;6.57;;;1.63;;
77868;SDS011;67231;59.144;37.934;2023-03-01T16:10:20;6.50;;;2.22;;
77868;SDS011;67231;59.144;37.934;2023-03-01T16:12:47;5.45;;;2.03;;
77868;SDS011;67231;59.144;37.934;2023-03-01T16:15:15;3.78;;;1.48;;
77868;SDS011;67231;59.144;37.934;2023-03-01T16:17:44;2.22;;;0.98;;
77868;SDS011;67231;59.144;37.934;2023-03-01T16:20:16;4.50;;;1.55;;
77868;SDS011;67231;59.144;37.934;2023-03-01T16:22:43;9.48;;;2.90;;
77868;SDS011;67231;59.144;37.934;2023-03-01T16:25:11;5.45;;;2.15;;
77868;SDS011;67231;59.144;37.934;2023-03-01T16:27:38;8.25;;;1.92;;
77868;SDS011;67231;59.144;37.934;2023-03-01T16:30:08;2.03;;;1.10;;
77868;SDS011;67231;59.144;37.934;2023-03-01T16:32:39;6.97;;;1.80;;
77868;SDS011;67231;59.144;37.934;2023-03-01T16:35:06;5.47;;;1.30;;
77868;SDS011;67231;59.144;37.934;2023-03-01T16:37:34;3.78;;;1.45;;
77868;SDS011;67231;59.144;37.934;2023-03-01T16:40:02;6.90;;;2.58;;
77868;SDS011;67231;59.144;37.934;2023-03-01T16:42:36;4.07;;;1.60;;
77868;SDS011;67231;59.144;37.934;2023-03-01T16:45:06;3.80;;;1.70;;
77868;SDS011;67231;59.144;37.934;2023-03-01T16:47:33;6.18;;;2.28;;
77868;SDS011;67231;59.144;37.934;2023-03-01T16:50:00;3.80;;;1.27;;
77868;SDS011;67231;59.144;37.934;2023-03-01T16:52:26;4.93;;;2.22;;
77868;SDS011;67231;59.144;37.934;2023-03-01T16:54:53;4.07;;;1.60;;
77868;SDS011;67231;59.144;37.934;2023-03-01T16:57:19;9.30;;;3.20;;
77868;SDS011;67231;59.144;37.934;2023-03-01T16:59:45;6.43;;;2.67;;